sensor_id;sensor_type;location;lat;lon;timestamp;P1;durP1;ratioP1;P2;durP2;ratioP2
10825;SDS011;5466;55.898;14.094;2024-01-30T00:00:55;17.23;;;9.07;;
10825;SDS011;5466;55.898;14.094;2024-01-30T00:02:57;16.63;;;11.33;;
10825;SDS011;5466;55.898;14.094;2024-01-30T00:04:57;14.73;;;9.90;;
10825;SDS011;5466;55.898;14.094;2024-01-30T00:06:58;20.20;;;10.33;;
10825;SDS011;5466;55.898;14.094;2024-01-30T00:08:58;12.57;;;10.00;;
10825;SDS011;5466;55.898;14.094;2024-01-30T00:10:59;15.73;;;10.63;;
10825;SDS011;5466;55.898;14.094;2024-01-30T00:13:00;15.57;;;10.27;;
10825;SDS011;5466;55.898;14.094;2024-01-30T00:15:01;19.07;;;12.63;;
10825;SDS011;5466;55.898;14.094;2024-01-30T00:17:04;14.30;;;11.17;;
10825;SDS011;5466;55.898;14.094;2024-01-30T00:19:05;14.67;;;11.37;;
10825;SDS011;5466;55.898;14.094;2024-01-30T00:21:05;17.30;;;11.17;;
10825;SDS011;5466;55.898;14.094;2024-01-30T00:23:06;19.10;;;11.33;;
10825;SDS011;5466;55.898;14.094;2024-01-30T00:25:06;14.07;;;10.77;;
10825;SDS011;5466;55.898;14.094;2024-01-30T00:27:08;18.33;;;11.27;;
10825;SDS011;5466;55.898;14.094;2024-01-30T00:29:08;14.33;;;10.77;;
10825;SDS011;5466;55.898;14.094;2024-01-30T00:31:09;12.43;;;9.90;;
10825;SDS011;5466;55.898;14.094;2024-01-30T00:33:12;15.17;;;9.87;;
10825;SDS011;5466;55.898;14.094;2024-01-30T00:35:13;15.03;;;9.90;;
10825;SDS011;5466;55.898;14.094;2024-01-30T00:37:14;15.37;;;10.33;;
10825;SDS011;5466;55.898;14.094;2024-01-30T00:39:14;13.90;;;9.83;;
10825;SDS011;5466;55.898;14.094;2024-01-30T00:41:18;11.20;;;9.37;;
10825;SDS011;5466;55.898;14.094;2024-01-30T00:43:19;13.87;;;10.23;;
10825;SDS011;5466;55.898;14.094;2024-01-30T00:45:21;14.77;;;9.70;;
10825;SDS011;5466;55.898;14.094;2024-01-30T00:47:21;14.87;;;9.53;;
10825;SDS011;5466;55.898;14.094;2024-01-30T00:49:22;14.73;;;9.37;;
10825;SDS011;5466;55.898;14.094;2024-01-30T00:51:23;13.63;;;9.33;;
10825;SDS011;5466;55.898;14.094;2024-01-30T00:53:23;12.20;;;9.03;;
10825;SDS011;5466;55.898;14.094;2024-01-30T00:55:24;12.77;;;8.87;;
10825;SDS011;5466;55.898;14.094;2024-01-30T00:57:25;14.17;;;9.33;;
10825;SDS011;5466;55.898;14.094;2024-01-30T00:59:25;15.73;;;9.40;;
10825;SDS011;5466;55.898;14.094;2024-01-30T01:01:26;14.63;;;9.30;;
10825;SDS011;5466;55.898;14.094;2024-01-30T01:03:26;15.73;;;9.63;;
10825;SDS011;5466;55.898;14.094;2024-01-30T01:05:27;14.47;;;9.23;;
10825;SDS011;5466;55.898;14.094;2024-01-30T01:07:28;13.57;;;9.70;;
10825;SDS011;5466;55.898;14.094;2024-01-30T01:09:28;17.50;;;9.97;;
10825;SDS011;5466;55.898;14.094;2024-01-30T01:11:29;15.07;;;9.33;;
10825;SDS011;5466;55.898;14.094;2024-01-30T01:13:30;13.37;;;9.77;;
10825;SDS011;5466;55.898;14.094;2024-01-30T01:15:30;14.63;;;9.57;;
10825;SDS011;5466;55.898;14.094;2024-01-30T01:17:31;15.07;;;9.40;;
10825;SDS011;5466;55.898;14.094;2024-01-30T01:19:31;14.83;;;9.13;;
10825;SDS011;5466;55.898;14.094;2024-01-30T01:21:32;16.43;;;9.53;;
10825;SDS011;5466;55.898;14.094;2024-01-30T01:23:33;14.17;;;8.97;;
10825;SDS011;5466;55.898;14.094;2024-01-30T01:25:33;16.80;;;9.27;;
10825;SDS011;5466;55.898;14.094;2024-01-30T01:27:34;13.33;;;9.57;;
10825;SDS011;5466;55.898;14.094;2024-01-30T01:29:40;13.80;;;9.20;;
10825;SDS011;5466;55.898;14.094;2024-01-30T01:31:40;14.40;;;9.63;;
10825;SDS011;5466;55.898;14.094;2024-01-30T01:33:44;14.67;;;9.27;;
10825;SDS011;5466;55.898;14.094;2024-01-30T01:35:44;13.27;;;8.87;;
10825;SDS011;5466;55.898;14.094;2024-01-30T01:37:45;12.50;;;9.40;;
10825;SDS011;5466;55.898;14.094;2024-01-30T01:39:45;14.63;;;9.20;;
10825;SDS011;5466;55.898;14.094;2024-01-30T01:41:46;15.00;;;9.43;;
10825;SDS011;5466;55.898;14.094;2024-01-30T01:43:47;18.50;;;9.23;;
10825;SDS011;5466;55.898;14.094;2024-01-30T01:45:47;14.07;;;9.30;;
10825;SDS011;5466;55.898;14.094;2024-01-30T01:47:50;16.57;;;9.53;;
10825;SDS011;5466;55.898;14.094;2024-01-30T01:49:51;14.50;;;9.07;;
10825;SDS011;5466;55.898;14.094;2024-01-30T01:51:52;12.33;;;8.80;;
10825;SDS011;5466;55.898;14.094;2024-01-30T01:53:57;16.33;;;9.17;;
10825;SDS011;5466;55.898;14.094;2024-01-30T01:56:00;12.57;;;9.50;;
10825;SDS011;5466;55.898;14.094;2024-01-30T01:58:01;13.00;;;10.20;;
10825;SDS011;5466;55.898;14.094;2024-01-30T02:00:02;13.63;;;9.40;;
10825;SDS011;5466;55.898;14.094;2024-01-30T02:02:04;14.03;;;9.20;;
10825;SDS011;5466;55.898;14.094;2024-01-30T02:04:10;12.20;;;8.97;;
10825;SDS011;5466;55.898;14.094;2024-01-30T02:06:11;13.40;;;9.17;;
10825;SDS011;5466;55.898;14.094;2024-01-30T02:08:16;14.40;;;9.13;;
10825;SDS011;5466;55.898;14.094;2024-01-30T02:10:17;15.40;;;7.70;;
10825;SDS011;5466;55.898;14.094;2024-01-30T02:12:17;11.43;;;8.97;;
10825;SDS011;5466;55.898;14.094;2024-01-30T02:14:18;15.27;;;9.80;;
10825;SDS011;5466;55.898;14.094;2024-01-30T02:16:19;18.27;;;9.83;;
10825;SDS011;5466;55.898;14.094;2024-01-30T02:18:19;16.50;;;9.97;;
10825;SDS011;5466;55.898;14.094;2024-01-30T02:20:21;11.83;;;9.43;;
10825;SDS011;5466;55.898;14.094;2024-01-30T02:22:24;16.07;;;8.83;;
10825;SDS011;5466;55.898;14.094;2024-01-30T02:24:25;15.60;;;10.23;;
10825;SDS011;5466;55.898;14.094;2024-01-30T02:26:26;14.37;;;8.90;;
10825;SDS011;5466;55.898;14.094;2024-01-30T02:28:26;15.70;;;9.60;;
10825;SDS011;5466;55.898;14.094;2024-01-30T02:30:27;13.77;;;9.03;;
10825;SDS011;5466;55.898;14.094;2024-01-30T02:32:28;12.83;;;9.70;;
10825;SDS011;5466;55.898;14.094;2024-01-30T02:34:28;21.07;;;9.20;;
10825;SDS011;5466;55.898;14.094;2024-01-30T02:36:29;19.57;;;10.27;;
10825;SDS011;5466;55.898;14.094;2024-01-30T02:38:29;14.47;;;10.00;;
10825;SDS011;5466;55.898;14.094;2024-01-30T02:40:30;16.83;;;9.97;;
10825;SDS011;5466;55.898;14.094;2024-01-30T02:42:31;13.60;;;9.67;;
10825;SDS011;5466;55.898;14.094;2024-01-30T02:44:32;14.00;;;9.43;;
10825;SDS011;5466;55.898;14.094;2024-01-30T02:46:32;13.67;;;9.50;;
10825;SDS011;5466;55.898;14.094;2024-01-30T02:48:33;12.33;;;9.30;;
10825;SDS011;5466;55.898;14.094;2024-01-30T02:50:33;16.27;;;9.27;;
10825;SDS011;5466;55.898;14.094;2024-01-30T02:52:34;12.93;;;9.63;;
10825;SDS011;5466;55.898;14.094;2024-01-30T02:54:35;16.03;;;8.63;;
10825;SDS011;5466;55.898;14.094;2024-01-30T02:56:36;13.77;;;9.47;;
10825;SDS011;5466;55.898;14.094;2024-01-30T02:58:36;16.73;;;9.03;;
10825;SDS011;5466;55.898;14.094;2024-01-30T03:00:37;18.30;;;9.40;;
10825;SDS011;5466;55.898;14.094;2024-01-30T03:02:37;15.43;;;9.50;;
10825;SDS011;5466;55.898;14.094;2024-01-30T03:04:40;12.60;;;9.43;;
10825;SDS011;5466;55.898;14.094;2024-01-30T03:06:44;14.73;;;10.20;;
10825;SDS011;5466;55.898;14.094;2024-01-30T03:08:47;16.23;;;10.03;;
10825;SDS011;5466;55.898;14.094;2024-01-30T03:10:47;15.93;;;10.20;;
10825;SDS011;5466;55.898;14.094;2024-01-30T03:12:48;16.67;;;10.50;;
10825;SDS011;5466;55.898;14.094;2024-01-30T03:14:48;16.87;;;10.43;;
10825;SDS011;5466;55.898;14.094;2024-01-30T03:16:49;13.40;;;9.70;;
10825;SDS011;5466;55.898;14.094;2024-01-30T03:18:50;16.90;;;9.67;;
10825;SDS011;5466;55.898;14.094;2024-01-30T03:20:50;12.63;;;9.13;;
10825;SDS011;5466;55.898;14.094;2024-01-30T03:22:51;13.20;;;9.70;;
10825;SDS011;5466;55.898;14.094;2024-01-30T03:24:51;14.97;;;9.77;;
10825;SDS011;5466;55.898;14.094;2024-01-30T03:26:53;13.50;;;9.43;;
10825;SDS011;5466;55.898;14.094;2024-01-30T03:28:53;12.40;;;9.77;;
10825;SDS011;5466;55.898;14.094;2024-01-30T03:30:54;14.67;;;9.57;;
10825;SDS011;5466;55.898;14.094;2024-01-30T03:32:55;14.00;;;8.90;;
10825;SDS011;5466;55.898;14.094;2024-01-30T03:34:55;14.13;;;8.87;;
10825;SDS011;5466;55.898;14.094;2024-01-30T03:36:56;14.47;;;9.40;;
10825;SDS011;5466;55.898;14.094;2024-01-30T03:38:56;11.23;;;8.80;;
10825;SDS011;5466;55.898;14.094;2024-01-30T03:40:57;9.53;;;7.57;;
10825;SDS011;5466;55.898;14.094;2024-01-30T03:42:58;13.10;;;9.07;;
10825;SDS011;5466;55.898;14.094;2024-01-30T03:44:59;11.17;;;8.50;;
10825;SDS011;5466;55.898;14.094;2024-01-30T03:46:59;12.53;;;8.60;;
10825;SDS011;5466;55.898;14.094;2024-01-30T03:49:00;9.80;;;7.50;;
10825;SDS011;5466;55.898;14.094;2024-01-30T03:51:00;9.10;;;7.10;;
10825;SDS011;5466;55.898;14.094;2024-01-30T03:53:01;9.53;;;7.27;;
10825;SDS011;5466;55.898;14.094;2024-01-30T03:55:02;12.45;;;9.43;;
10825;SDS011;5466;55.898;14.094;2024-01-30T03:57:03;13.37;;;8.97;;
10825;SDS011;5466;55.898;14.094;2024-01-30T03:59:03;10.17;;;8.10;;
10825;SDS011;5466;55.898;14.094;2024-01-30T04:01:04;9.83;;;8.17;;
10825;SDS011;5466;55.898;14.094;2024-01-30T04:03:05;12.40;;;8.57;;
10825;SDS011;5466;55.898;14.094;2024-01-30T04:05:06;12.10;;;9.60;;
10825;SDS011;5466;55.898;14.094;2024-01-30T04:07:06;12.20;;;9.47;;
10825;SDS011;5466;55.898;14.094;2024-01-30T04:09:07;15.60;;;8.97;;
10825;SDS011;5466;55.898;14.094;2024-01-30T04:11:08;12.88;;;8.63;;
10825;SDS011;5466;55.898;14.094;2024-01-30T04:13:08;15.67;;;9.33;;
10825;SDS011;5466;55.898;14.094;2024-01-30T04:15:09;15.63;;;9.83;;
10825;SDS011;5466;55.898;14.094;2024-01-30T04:17:10;13.27;;;9.40;;
10825;SDS011;5466;55.898;14.094;2024-01-30T04:19:10;12.70;;;8.47;;
10825;SDS011;5466;55.898;14.094;2024-01-30T04:21:11;11.80;;;8.50;;
10825;SDS011;5466;55.898;14.094;2024-01-30T04:23:12;13.73;;;9.77;;
10825;SDS011;5466;55.898;14.094;2024-01-30T04:25:12;12.23;;;9.53;;
10825;SDS011;5466;55.898;14.094;2024-01-30T04:27:13;16.10;;;11.50;;
10825;SDS011;5466;55.898;14.094;2024-01-30T04:29:14;14.87;;;10.33;;
10825;SDS011;5466;55.898;14.094;2024-01-30T04:31:15;14.43;;;9.27;;
10825;SDS011;5466;55.898;14.094;2024-01-30T04:33:15;11.93;;;9.50;;
10825;SDS011;5466;55.898;14.094;2024-01-30T04:35:18;15.63;;;9.93;;
10825;SDS011;5466;55.898;14.094;2024-01-30T04:37:20;18.77;;;10.53;;
10825;SDS011;5466;55.898;14.094;2024-01-30T04:39:21;16.63;;;10.80;;
10825;SDS011;5466;55.898;14.094;2024-01-30T04:41:22;22.30;;;13.40;;
10825;SDS011;5466;55.898;14.094;2024-01-30T04:43:23;25.23;;;15.97;;
10825;SDS011;5466;55.898;14.094;2024-01-30T04:45:24;20.83;;;13.53;;
10825;SDS011;5466;55.898;14.094;2024-01-30T04:47:24;18.27;;;12.23;;
10825;SDS011;5466;55.898;14.094;2024-01-30T04:49:25;14.07;;;10.47;;
10825;SDS011;5466;55.898;14.094;2024-01-30T04:51:26;16.23;;;11.18;;
10825;SDS011;5466;55.898;14.094;2024-01-30T04:53:26;16.57;;;11.27;;
10825;SDS011;5466;55.898;14.094;2024-01-30T04:55:27;13.88;;;10.43;;
10825;SDS011;5466;55.898;14.094;2024-01-30T04:57:27;14.57;;;10.73;;
10825;SDS011;5466;55.898;14.094;2024-01-30T04:59:28;15.20;;;10.80;;
10825;SDS011;5466;55.898;14.094;2024-01-30T05:01:28;14.53;;;10.80;;
10825;SDS011;5466;55.898;14.094;2024-01-30T05:03:32;16.63;;;10.03;;
10825;SDS011;5466;55.898;14.094;2024-01-30T05:05:34;15.82;;;10.60;;
10825;SDS011;5466;55.898;14.094;2024-01-30T05:07:34;14.98;;;11.35;;
10825;SDS011;5466;55.898;14.094;2024-01-30T05:09:36;17.97;;;12.30;;
10825;SDS011;5466;55.898;14.094;2024-01-30T05:11:37;19.33;;;13.90;;
10825;SDS011;5466;55.898;14.094;2024-01-30T05:13:39;20.40;;;12.70;;
10825;SDS011;5466;55.898;14.094;2024-01-30T05:15:39;18.33;;;13.00;;
10825;SDS011;5466;55.898;14.094;2024-01-30T05:17:40;19.42;;;14.00;;
10825;SDS011;5466;55.898;14.094;2024-01-30T05:19:40;19.75;;;13.35;;
10825;SDS011;5466;55.898;14.094;2024-01-30T05:21:42;17.50;;;12.07;;
10825;SDS011;5466;55.898;14.094;2024-01-30T05:23:42;17.33;;;11.90;;
10825;SDS011;5466;55.898;14.094;2024-01-30T05:25:43;18.43;;;12.50;;
10825;SDS011;5466;55.898;14.094;2024-01-30T05:27:44;17.53;;;13.90;;
10825;SDS011;5466;55.898;14.094;2024-01-30T05:29:45;22.55;;;15.57;;
10825;SDS011;5466;55.898;14.094;2024-01-30T05:31:46;20.77;;;14.73;;
10825;SDS011;5466;55.898;14.094;2024-01-30T05:33:46;20.48;;;14.18;;
10825;SDS011;5466;55.898;14.094;2024-01-30T05:35:47;23.27;;;14.85;;
10825;SDS011;5466;55.898;14.094;2024-01-30T05:37:48;18.30;;;13.90;;
10825;SDS011;5466;55.898;14.094;2024-01-30T05:39:50;18.27;;;13.82;;
10825;SDS011;5466;55.898;14.094;2024-01-30T05:41:50;17.97;;;13.57;;
10825;SDS011;5466;55.898;14.094;2024-01-30T05:43:51;20.13;;;14.63;;
10825;SDS011;5466;55.898;14.094;2024-01-30T05:45:52;20.05;;;13.75;;
10825;SDS011;5466;55.898;14.094;2024-01-30T05:47:53;16.45;;;11.80;;
10825;SDS011;5466;55.898;14.094;2024-01-30T05:49:53;22.98;;;13.35;;
10825;SDS011;5466;55.898;14.094;2024-01-30T05:51:54;18.00;;;13.47;;
10825;SDS011;5466;55.898;14.094;2024-01-30T05:53:55;17.60;;;12.40;;
10825;SDS011;5466;55.898;14.094;2024-01-30T05:55:55;18.92;;;12.18;;
10825;SDS011;5466;55.898;14.094;2024-01-30T05:57:56;17.73;;;12.07;;
10825;SDS011;5466;55.898;14.094;2024-01-30T05:59:56;16.25;;;12.25;;
10825;SDS011;5466;55.898;14.094;2024-01-30T06:01:58;15.80;;;11.93;;
10825;SDS011;5466;55.898;14.094;2024-01-30T06:03:58;18.57;;;14.67;;
10825;SDS011;5466;55.898;14.094;2024-01-30T06:05:59;17.40;;;13.30;;
10825;SDS011;5466;55.898;14.094;2024-01-30T06:07:59;22.80;;;13.73;;
10825;SDS011;5466;55.898;14.094;2024-01-30T06:10:00;19.80;;;13.50;;
10825;SDS011;5466;55.898;14.094;2024-01-30T06:12:01;21.55;;;14.45;;
10825;SDS011;5466;55.898;14.094;2024-01-30T06:14:02;23.33;;;14.87;;
10825;SDS011;5466;55.898;14.094;2024-01-30T06:16:03;19.73;;;15.13;;
10825;SDS011;5466;55.898;14.094;2024-01-30T06:18:04;20.17;;;13.90;;
10825;SDS011;5466;55.898;14.094;2024-01-30T06:20:05;20.40;;;14.80;;
10825;SDS011;5466;55.898;14.094;2024-01-30T06:22:06;19.17;;;14.60;;
10825;SDS011;5466;55.898;14.094;2024-01-30T06:24:07;21.43;;;15.70;;
10825;SDS011;5466;55.898;14.094;2024-01-30T06:26:07;21.20;;;14.63;;
10825;SDS011;5466;55.898;14.094;2024-01-30T06:28:08;18.40;;;14.13;;
10825;SDS011;5466;55.898;14.094;2024-01-30T06:30:08;19.80;;;14.73;;
10825;SDS011;5466;55.898;14.094;2024-01-30T06:32:09;20.83;;;14.93;;
10825;SDS011;5466;55.898;14.094;2024-01-30T06:34:10;19.60;;;14.80;;
10825;SDS011;5466;55.898;14.094;2024-01-30T06:36:12;19.77;;;15.20;;
10825;SDS011;5466;55.898;14.094;2024-01-30T06:38:12;20.87;;;15.50;;
10825;SDS011;5466;55.898;14.094;2024-01-30T06:40:13;19.77;;;15.35;;
10825;SDS011;5466;55.898;14.094;2024-01-30T06:42:14;21.45;;;14.55;;
10825;SDS011;5466;55.898;14.094;2024-01-30T06:44:14;19.93;;;14.10;;
10825;SDS011;5466;55.898;14.094;2024-01-30T06:46:15;23.67;;;15.20;;
10825;SDS011;5466;55.898;14.094;2024-01-30T06:48:16;21.85;;;14.68;;
10825;SDS011;5466;55.898;14.094;2024-01-30T06:50:16;20.50;;;14.73;;
10825;SDS011;5466;55.898;14.094;2024-01-30T06:52:17;19.45;;;15.40;;
10825;SDS011;5466;55.898;14.094;2024-01-30T06:54:18;21.23;;;14.90;;
10825;SDS011;5466;55.898;14.094;2024-01-30T06:56:19;19.98;;;14.25;;
10825;SDS011;5466;55.898;14.094;2024-01-30T06:58:20;22.25;;;13.48;;
10825;SDS011;5466;55.898;14.094;2024-01-30T07:00:21;22.98;;;15.13;;
10825;SDS011;5466;55.898;14.094;2024-01-30T07:02:22;17.27;;;13.90;;
10825;SDS011;5466;55.898;14.094;2024-01-30T07:04:23;20.88;;;13.80;;
10825;SDS011;5466;55.898;14.094;2024-01-30T07:06:23;20.45;;;14.38;;
10825;SDS011;5466;55.898;14.094;2024-01-30T07:08:24;22.47;;;15.17;;
10825;SDS011;5466;55.898;14.094;2024-01-30T07:10:25;20.52;;;14.82;;
10825;SDS011;5466;55.898;14.094;2024-01-30T07:12:25;18.83;;;14.32;;
10825;SDS011;5466;55.898;14.094;2024-01-30T07:14:26;21.02;;;14.85;;
10825;SDS011;5466;55.898;14.094;2024-01-30T07:16:27;23.30;;;14.68;;
10825;SDS011;5466;55.898;14.094;2024-01-30T07:18:27;19.42;;;13.80;;
10825;SDS011;5466;55.898;14.094;2024-01-30T07:20:28;18.83;;;13.73;;
10825;SDS011;5466;55.898;14.094;2024-01-30T07:22:30;17.20;;;13.27;;
10825;SDS011;5466;55.898;14.094;2024-01-30T07:24:31;21.45;;;14.35;;
10825;SDS011;5466;55.898;14.094;2024-01-30T07:26:31;18.02;;;14.15;;
10825;SDS011;5466;55.898;14.094;2024-01-30T07:28:32;22.30;;;14.60;;
10825;SDS011;5466;55.898;14.094;2024-01-30T07:30:33;19.23;;;14.18;;
10825;SDS011;5466;55.898;14.094;2024-01-30T07:32:34;19.77;;;13.70;;
10825;SDS011;5466;55.898;14.094;2024-01-30T07:34:34;20.25;;;13.20;;
10825;SDS011;5466;55.898;14.094;2024-01-30T07:36:36;18.05;;;13.57;;
10825;SDS011;5466;55.898;14.094;2024-01-30T07:38:36;19.13;;;14.07;;
10825;SDS011;5466;55.898;14.094;2024-01-30T07:40:37;19.00;;;13.57;;
10825;SDS011;5466;55.898;14.094;2024-01-30T07:42:38;21.02;;;14.32;;
10825;SDS011;5466;55.898;14.094;2024-01-30T07:44:38;24.17;;;14.80;;
10825;SDS011;5466;55.898;14.094;2024-01-30T07:46:39;19.42;;;13.70;;
10825;SDS011;5466;55.898;14.094;2024-01-30T07:48:39;19.27;;;14.05;;
10825;SDS011;5466;55.898;14.094;2024-01-30T07:50:40;19.48;;;14.75;;
10825;SDS011;5466;55.898;14.094;2024-01-30T07:52:41;21.52;;;14.77;;
10825;SDS011;5466;55.898;14.094;2024-01-30T07:54:42;20.33;;;14.70;;
10825;SDS011;5466;55.898;14.094;2024-01-30T07:56:43;19.45;;;14.50;;
10825;SDS011;5466;55.898;14.094;2024-01-30T07:58:44;21.77;;;15.50;;
10825;SDS011;5466;55.898;14.094;2024-01-30T08:00:45;22.25;;;15.57;;
10825;SDS011;5466;55.898;14.094;2024-01-30T08:02:45;21.35;;;15.70;;
10825;SDS011;5466;55.898;14.094;2024-01-30T08:04:46;21.08;;;15.32;;
10825;SDS011;5466;55.898;14.094;2024-01-30T08:06:49;25.33;;;16.27;;
10825;SDS011;5466;55.898;14.094;2024-01-30T08:08:50;22.58;;;15.38;;
10825;SDS011;5466;55.898;14.094;2024-01-30T08:10:53;19.70;;;14.13;;
10825;SDS011;5466;55.898;14.094;2024-01-30T08:12:53;19.42;;;14.82;;
10825;SDS011;5466;55.898;14.094;2024-01-30T08:14:54;21.77;;;13.90;;
10825;SDS011;5466;55.898;14.094;2024-01-30T08:16:55;18.73;;;14.35;;
10825;SDS011;5466;55.898;14.094;2024-01-30T08:18:55;23.23;;;14.65;;
10825;SDS011;5466;55.898;14.094;2024-01-30T08:20:57;18.20;;;13.60;;
10825;SDS011;5466;55.898;14.094;2024-01-30T08:22:58;22.33;;;14.07;;
10825;SDS011;5466;55.898;14.094;2024-01-30T08:25:00;19.52;;;13.98;;
10825;SDS011;5466;55.898;14.094;2024-01-30T08:27:01;33.05;;;14.23;;
10825;SDS011;5466;55.898;14.094;2024-01-30T08:29:02;25.60;;;13.77;;
10825;SDS011;5466;55.898;14.094;2024-01-30T08:31:03;19.30;;;13.50;;
10825;SDS011;5466;55.898;14.094;2024-01-30T08:33:05;21.38;;;15.13;;
10825;SDS011;5466;55.898;14.094;2024-01-30T08:35:06;20.27;;;14.27;;
10825;SDS011;5466;55.898;14.094;2024-01-30T08:37:08;20.27;;;15.25;;
10825;SDS011;5466;55.898;14.094;2024-01-30T08:39:09;19.48;;;14.13;;
10825;SDS011;5466;55.898;14.094;2024-01-30T08:41:10;19.98;;;14.35;;
10825;SDS011;5466;55.898;14.094;2024-01-30T08:43:10;19.42;;;13.48;;
10825;SDS011;5466;55.898;14.094;2024-01-30T08:45:12;18.92;;;13.95;;
10825;SDS011;5466;55.898;14.094;2024-01-30T08:47:13;21.50;;;14.45;;
10825;SDS011;5466;55.898;14.094;2024-01-30T08:49:16;25.27;;;14.63;;
10825;SDS011;5466;55.898;14.094;2024-01-30T08:51:17;20.48;;;13.43;;
10825;SDS011;5466;55.898;14.094;2024-01-30T08:53:18;30.45;;;14.65;;
10825;SDS011;5466;55.898;14.094;2024-01-30T08:55:18;22.50;;;14.90;;
10825;SDS011;5466;55.898;14.094;2024-01-30T08:57:19;20.17;;;14.07;;
10825;SDS011;5466;55.898;14.094;2024-01-30T08:59:20;19.08;;;13.55;;
10825;SDS011;5466;55.898;14.094;2024-01-30T09:01:20;19.83;;;13.77;;
10825;SDS011;5466;55.898;14.094;2024-01-30T09:03:21;21.70;;;14.30;;
10825;SDS011;5466;55.898;14.094;2024-01-30T09:05:22;21.33;;;13.77;;
10825;SDS011;5466;55.898;14.094;2024-01-30T09:07:22;22.40;;;13.43;;
10825;SDS011;5466;55.898;14.094;2024-01-30T09:09:23;20.17;;;14.00;;
10825;SDS011;5466;55.898;14.094;2024-01-30T09:11:24;16.92;;;12.30;;
10825;SDS011;5466;55.898;14.094;2024-01-30T09:13:24;18.75;;;12.50;;
10825;SDS011;5466;55.898;14.094;2024-01-30T09:15:25;18.20;;;12.65;;
10825;SDS011;5466;55.898;14.094;2024-01-30T09:17:25;20.77;;;13.30;;
10825;SDS011;5466;55.898;14.094;2024-01-30T09:19:26;23.48;;;14.73;;
10825;SDS011;5466;55.898;14.094;2024-01-30T09:21:27;18.27;;;12.65;;
10825;SDS011;5466;55.898;14.094;2024-01-30T09:23:27;18.73;;;12.10;;
10825;SDS011;5466;55.898;14.094;2024-01-30T09:25:28;17.48;;;11.73;;
10825;SDS011;5466;55.898;14.094;2024-01-30T09:27:29;16.10;;;12.05;;
10825;SDS011;5466;55.898;14.094;2024-01-30T09:29:29;20.52;;;12.95;;
10825;SDS011;5466;55.898;14.094;2024-01-30T09:31:30;17.98;;;11.93;;
10825;SDS011;5466;55.898;14.094;2024-01-30T09:33:31;20.48;;;11.90;;
10825;SDS011;5466;55.898;14.094;2024-01-30T09:35:31;16.15;;;12.35;;
10825;SDS011;5466;55.898;14.094;2024-01-30T09:37:32;19.73;;;12.68;;
10825;SDS011;5466;55.898;14.094;2024-01-30T09:39:33;17.38;;;11.82;;
10825;SDS011;5466;55.898;14.094;2024-01-30T09:41:33;18.25;;;11.55;;
10825;SDS011;5466;55.898;14.094;2024-01-30T09:43:44;14.63;;;12.18;;
10825;SDS011;5466;55.898;14.094;2024-01-30T09:45:50;16.17;;;12.32;;
10825;SDS011;5466;55.898;14.094;2024-01-30T09:47:52;15.85;;;12.05;;
10825;SDS011;5466;55.898;14.094;2024-01-30T09:49:53;18.17;;;12.00;;
10825;SDS011;5466;55.898;14.094;2024-01-30T09:51:55;18.13;;;12.63;;
10825;SDS011;5466;55.898;14.094;2024-01-30T09:53:56;17.67;;;12.30;;
10825;SDS011;5466;55.898;14.094;2024-01-30T09:55:57;20.30;;;13.30;;
10825;SDS011;5466;55.898;14.094;2024-01-30T09:57:58;19.80;;;13.32;;
10825;SDS011;5466;55.898;14.094;2024-01-30T09:59:59;19.05;;;13.45;;
10825;SDS011;5466;55.898;14.094;2024-01-30T10:02:00;18.08;;;12.52;;
10825;SDS011;5466;55.898;14.094;2024-01-30T10:04:01;21.85;;;13.18;;
10825;SDS011;5466;55.898;14.094;2024-01-30T10:06:01;20.45;;;13.05;;
10825;SDS011;5466;55.898;14.094;2024-01-30T10:08:05;19.67;;;13.60;;
10825;SDS011;5466;55.898;14.094;2024-01-30T10:10:08;19.42;;;13.32;;
10825;SDS011;5466;55.898;14.094;2024-01-30T10:12:09;19.08;;;14.02;;
10825;SDS011;5466;55.898;14.094;2024-01-30T10:14:10;18.95;;;13.45;;
10825;SDS011;5466;55.898;14.094;2024-01-30T10:16:10;20.02;;;14.38;;
10825;SDS011;5466;55.898;14.094;2024-01-30T10:18:15;21.00;;;14.32;;
10825;SDS011;5466;55.898;14.094;2024-01-30T10:20:15;20.48;;;13.15;;
10825;SDS011;5466;55.898;14.094;2024-01-30T10:22:17;21.40;;;13.63;;
10825;SDS011;5466;55.898;14.094;2024-01-30T10:24:18;22.33;;;14.18;;
10825;SDS011;5466;55.898;14.094;2024-01-30T10:26:23;19.42;;;13.88;;
10825;SDS011;5466;55.898;14.094;2024-01-30T10:28:26;21.63;;;13.93;;
10825;SDS011;5466;55.898;14.094;2024-01-30T10:30:29;19.63;;;12.85;;
10825;SDS011;5466;55.898;14.094;2024-01-30T10:32:30;20.58;;;13.27;;
10825;SDS011;5466;55.898;14.094;2024-01-30T10:34:31;20.85;;;14.27;;
10825;SDS011;5466;55.898;14.094;2024-01-30T10:36:32;21.17;;;13.32;;
10825;SDS011;5466;55.898;14.094;2024-01-30T10:38:38;19.95;;;13.02;;
10825;SDS011;5466;55.898;14.094;2024-01-30T10:40:42;18.95;;;12.38;;
10825;SDS011;5466;55.898;14.094;2024-01-30T10:42:44;19.83;;;13.13;;
10825;SDS011;5466;55.898;14.094;2024-01-30T10:46:56;34.63;;;19.73;;
10825;SDS011;5466;55.898;14.094;2024-01-30T10:49:02;19.27;;;12.75;;
10825;SDS011;5466;55.898;14.094;2024-01-30T10:51:04;20.67;;;12.50;;
10825;SDS011;5466;55.898;14.094;2024-01-30T10:53:07;17.58;;;12.45;;
10825;SDS011;5466;55.898;14.094;2024-01-30T10:55:10;18.13;;;12.52;;
10825;SDS011;5466;55.898;14.094;2024-01-30T10:57:11;18.30;;;12.30;;
10825;SDS011;5466;55.898;14.094;2024-01-30T10:59:13;23.40;;;13.90;;
10825;SDS011;5466;55.898;14.094;2024-01-30T11:01:14;17.17;;;11.88;;
10825;SDS011;5466;55.898;14.094;2024-01-30T11:03:16;21.83;;;13.43;;
10825;SDS011;5466;55.898;14.094;2024-01-30T11:05:23;20.10;;;13.43;;
10825;SDS011;5466;55.898;14.094;2024-01-30T11:07:27;18.08;;;12.07;;
10825;SDS011;5466;55.898;14.094;2024-01-30T11:09:29;18.05;;;13.02;;
10825;SDS011;5466;55.898;14.094;2024-01-30T11:11:30;20.13;;;13.30;;
10825;SDS011;5466;55.898;14.094;2024-01-30T11:13:31;18.65;;;12.63;;
10825;SDS011;5466;55.898;14.094;2024-01-30T11:15:31;21.58;;;12.90;;
10825;SDS011;5466;55.898;14.094;2024-01-30T11:19:49;18.70;;;11.77;;
10825;SDS011;5466;55.898;14.094;2024-01-30T11:21:52;17.33;;;12.13;;
10825;SDS011;5466;55.898;14.094;2024-01-30T11:23:54;17.67;;;11.73;;
10825;SDS011;5466;55.898;14.094;2024-01-30T11:25:56;14.48;;;11.20;;
10825;SDS011;5466;55.898;14.094;2024-01-30T11:27:57;17.63;;;11.88;;
10825;SDS011;5466;55.898;14.094;2024-01-30T11:30:02;17.50;;;11.32;;
10825;SDS011;5466;55.898;14.094;2024-01-30T11:32:03;14.68;;;10.60;;
10825;SDS011;5466;55.898;14.094;2024-01-30T11:34:03;17.52;;;12.70;;
10825;SDS011;5466;55.898;14.094;2024-01-30T11:36:05;17.42;;;11.50;;
10825;SDS011;5466;55.898;14.094;2024-01-30T11:38:10;18.38;;;11.48;;
10825;SDS011;5466;55.898;14.094;2024-01-30T11:40:13;14.40;;;10.85;;
10825;SDS011;5466;55.898;14.094;2024-01-30T11:42:14;14.30;;;10.00;;
10825;SDS011;5466;55.898;14.094;2024-01-30T11:44:15;9.15;;;7.00;;
10825;SDS011;5466;55.898;14.094;2024-01-30T11:46:16;8.77;;;6.55;;
10825;SDS011;5466;55.898;14.094;2024-01-30T11:48:17;7.43;;;6.07;;
10825;SDS011;5466;55.898;14.094;2024-01-30T11:50:18;8.18;;;6.75;;
10825;SDS011;5466;55.898;14.094;2024-01-30T11:52:19;7.93;;;6.30;;
10825;SDS011;5466;55.898;14.094;2024-01-30T11:54:19;9.15;;;7.38;;
10825;SDS011;5466;55.898;14.094;2024-01-30T11:56:20;10.80;;;8.35;;